Preston, Maryland
Current Conditions -  °F | °C
As of 10:50 AM on Friday 19 Dec 2014 (Local Time) from KESN Reporting Station
Overcast Overcast  
Wind Chill: 30°   Ceiling: 3000
Heat Index: 37°   Visibility: 10mi
Dew Point: 28°   Wind: 10mph
Humidity: 70%   Direction: 320°NW
Pressure: 30.19"   Gusts: NA
Location:  38.71°N, 75.91°W
Report Text: KESN 191550Z 32009KT 10SM OVC030 03/M02 A3019
Loading
Personal Weather Stations






























Interactive Weather Map New forecast layout! Learn more

10-Day Weather Forecast

Advertisements
Track Severe Weather on mobile